createdAt,value
2018-02-20T00:00:01.912Z,23.2
2018-02-20T00:01:01.814Z,23.2
2018-02-20T00:02:01.758Z,23.3
2018-02-20T00:03:01.642Z,23.3
2018-02-20T00:04:01.654Z,23.3
2018-02-20T00:05:01.553Z,23.3
2018-02-20T00:06:01.594Z,23.2
2018-02-20T00:07:01.560Z,23.1
2018-02-20T00:08:01.422Z,23.1
2018-02-20T00:09:01.503Z,23.1
2018-02-20T00:10:01.334Z,23
2018-02-20T00:11:01.183Z,23
2018-02-20T00:12:01.109Z,22.9
2018-02-20T00:13:00.939Z,22.9
2018-02-20T00:14:00.948Z,22.9
2018-02-20T00:15:00.828Z,23
2018-02-20T00:16:00.901Z,23
2018-02-20T00:17:00.780Z,23.3
2018-02-20T00:18:00.653Z,23.3
2018-02-20T00:19:00.713Z,23.2
2018-02-20T00:20:00.603Z,23.3
2018-02-20T00:21:00.468Z,23.2
2018-02-20T00:22:00.411Z,23.3
2018-02-20T00:23:00.310Z,23.3
2018-02-20T00:24:00.320Z,23.3
2018-02-20T00:25:00.405Z,23.3
2018-02-20T00:26:00.121Z,23.3
2018-02-20T00:27:00.154Z,23.3
2018-02-20T00:27:59.908Z,23.2
2018-02-20T00:29:00.014Z,23.2
2018-02-20T00:30:00.059Z,23.2
2018-02-20T00:30:59.911Z,23.1
2018-02-20T00:31:59.691Z,23.1
2018-02-20T00:32:59.864Z,23.1
2018-02-20T00:33:59.495Z,23
2018-02-20T00:34:59.590Z,23
2018-02-20T00:35:59.536Z,23
2018-02-20T00:36:59.635Z,22.9
2018-02-20T00:37:59.335Z,22.9
2018-02-20T00:38:59.156Z,22.9
2018-02-20T00:39:59.233Z,22.9
2018-02-20T00:40:59.361Z,22.9
2018-02-20T00:41:59.127Z,22.9
2018-02-20T00:42:59.044Z,22.9
2018-02-20T00:43:59.089Z,23
2018-02-20T00:44:59.019Z,23.1
2018-02-20T00:45:58.945Z,23.1
2018-02-20T00:46:58.632Z,23.1
2018-02-20T00:47:59.276Z,23.1
2018-02-20T00:48:58.563Z,23
2018-02-20T00:49:58.447Z,23
2018-02-20T00:50:58.321Z,22.9
2018-02-20T00:51:58.528Z,22.9
2018-02-20T00:52:58.351Z,22.9
2018-02-20T00:53:58.470Z,22.9
2018-02-20T00:54:58.138Z,22.9
2018-02-20T00:55:58.015Z,22.9
2018-02-20T00:56:57.923Z,22.9
2018-02-20T00:57:58.014Z,22.9
2018-02-20T00:58:57.943Z,23
2018-02-20T00:59:57.985Z,23
2018-02-20T01:00:57.722Z,23.1
2018-02-20T01:01:57.619Z,23.1
2018-02-20T01:02:57.650Z,23.1
2018-02-20T01:03:57.555Z,23.2
2018-02-20T01:04:57.740Z,23.2
2018-02-20T01:05:57.296Z,23.3
2018-02-20T01:06:57.672Z,23.2
2018-02-20T01:07:57.904Z,23.2
2018-02-20T01:08:57.080Z,23.1
2018-02-20T01:09:57.533Z,23.1
2018-02-20T01:10:56.979Z,23.1
2018-02-20T01:11:56.902Z,23
2018-02-20T01:12:56.874Z,23
2018-02-20T01:13:56.742Z,22.9
2018-02-20T01:14:56.728Z,22.9
2018-02-20T01:15:56.978Z,22.9
2018-02-20T01:16:56.625Z,22.9
2018-02-20T01:17:56.914Z,22.9
2018-02-20T01:18:56.742Z,22.9
2018-02-20T01:19:56.780Z,22.9
2018-02-20T01:20:56.560Z,22.9
2018-02-20T01:21:56.185Z,22.9
2018-02-20T01:22:56.173Z,22.9
2018-02-20T01:23:56.124Z,22.9
2018-02-20T01:24:56.163Z,22.9
2018-02-20T01:25:56.396Z,22.9
2018-02-20T01:26:56.232Z,22.9
2018-02-20T01:27:55.895Z,22.8
2018-02-20T01:28:55.868Z,22.8
2018-02-20T01:29:55.633Z,22.8
2018-02-20T01:30:56.029Z,22.9
2018-02-20T01:31:55.572Z,22.9
2018-02-20T01:32:55.522Z,22.9
2018-02-20T01:33:55.527Z,22.9
2018-02-20T01:34:55.328Z,22.9
2018-02-20T01:35:55.312Z,22.9
2018-02-20T01:36:55.198Z,22.9
2018-02-20T01:37:55.435Z,22.9
2018-02-20T01:38:55.258Z,22.9
2018-02-20T01:39:54.997Z,23
2018-02-20T01:40:54.875Z,23
2018-02-20T01:41:54.899Z,23.1
2018-02-20T01:42:54.778Z,23.1
2018-02-20T01:43:54.808Z,23.1
2018-02-20T01:44:55.435Z,23.1
2018-02-20T01:45:54.530Z,23.1
2018-02-20T01:46:54.518Z,23.2
2018-02-20T01:47:55.009Z,23.3
2018-02-20T01:48:54.413Z,23.2
2018-02-20T01:49:54.309Z,23.2
2018-02-20T01:50:54.337Z,23.3
2018-02-20T01:51:54.206Z,23.3
2018-02-20T01:52:54.110Z,23.3
2018-02-20T01:53:53.982Z,23.2
2018-02-20T01:54:54.086Z,23.2
2018-02-20T01:55:54.304Z,23.1
2018-02-20T01:56:53.864Z,23.1
2018-02-20T01:57:53.713Z,23.1
2018-02-20T01:58:53.709Z,23
2018-02-20T01:59:53.667Z,23
2018-02-20T02:00:53.853Z,23
2018-02-20T02:01:53.885Z,23
2018-02-20T02:02:53.356Z,23
2018-02-20T02:03:53.509Z,23
2018-02-20T02:04:53.342Z,23
2018-02-20T02:05:53.312Z,23.1
2018-02-20T02:06:53.196Z,23.1
2018-02-20T02:07:53.321Z,23.1
2018-02-20T02:08:53.285Z,23.1
2018-02-20T02:09:52.982Z,23.1
2018-02-20T02:10:52.855Z,23.1
2018-02-20T02:11:52.802Z,23.1
2018-02-20T02:12:52.724Z,23.1
2018-02-20T02:13:52.898Z,23.1
2018-02-20T02:14:52.727Z,23.1
2018-02-20T02:15:52.795Z,23.1
2018-02-20T02:16:52.572Z,23.1
2018-02-20T02:17:52.666Z,23.1
2018-02-20T02:18:52.261Z,23.1
2018-02-20T02:19:52.258Z,23.1
2018-02-20T02:20:52.634Z,23
2018-02-20T02:21:52.220Z,23
2018-02-20T02:22:52.146Z,23
2018-02-20T02:23:52.051Z,22.9
2018-02-20T02:24:51.937Z,22.9
2018-02-20T02:25:51.833Z,22.9
2018-02-20T02:26:51.886Z,22.9
2018-02-20T02:27:51.900Z,22.9
2018-02-20T02:28:51.732Z,23
2018-02-20T02:29:51.555Z,23
2018-02-20T02:30:51.597Z,23.1
2018-02-20T02:31:51.396Z,23.1
2018-02-20T02:32:51.329Z,23.1
2018-02-20T02:33:51.280Z,23.1
2018-02-20T02:34:51.327Z,23
2018-02-20T02:35:51.365Z,23
2018-02-20T02:36:51.086Z,23
2018-02-20T02:37:50.953Z,23.1
2018-02-20T02:38:51.231Z,23
2018-02-20T02:39:50.978Z,23
2018-02-20T02:40:51.112Z,22.9
2018-02-20T02:41:51.065Z,22.9
2018-02-20T02:42:50.770Z,22.9
2018-02-20T02:43:50.622Z,22.9
2018-02-20T02:44:50.642Z,22.9
2018-02-20T02:45:50.922Z,22.9
2018-02-20T02:46:50.479Z,22.9
2018-02-20T02:47:50.579Z,23
2018-02-20T02:48:50.247Z,23
2018-02-20T02:49:50.460Z,23.1
2018-02-20T02:50:50.110Z,23.1
2018-02-20T02:51:50.246Z,23.1
2018-02-20T02:52:50.207Z,23.1
2018-02-20T02:53:49.963Z,23.2
2018-02-20T02:54:49.819Z,23.2
2018-02-20T02:55:49.841Z,23.2
2018-02-20T02:56:49.690Z,23.2
2018-02-20T02:57:49.616Z,23.3
2018-02-20T02:58:49.663Z,23.3
2018-02-20T02:59:49.899Z,23.3
2018-02-20T03:00:49.696Z,23.3
2018-02-20T03:01:49.447Z,23.3
2018-02-20T03:02:49.393Z,23.4
2018-02-20T03:03:49.228Z,23.4
2018-02-20T03:04:49.244Z,23.3
2018-02-20T03:05:49.360Z,23.3
2018-02-20T03:06:49.102Z,23.3
2018-02-20T03:07:49.233Z,23.2
2018-02-20T03:08:48.971Z,23.2
2018-02-20T03:09:48.793Z,23.1
2018-02-20T03:10:48.815Z,23.1
2018-02-20T03:11:48.633Z,23.1
2018-02-20T03:12:48.548Z,23
2018-02-20T03:13:48.686Z,23
2018-02-20T03:14:48.565Z,23
2018-02-20T03:15:48.696Z,22.9
2018-02-20T03:16:48.354Z,22.9
2018-02-20T03:17:48.237Z,22.8
2018-02-20T03:18:48.619Z,22.9
2018-02-20T03:19:48.100Z,22.8
2018-02-20T03:20:48.161Z,22.8
2018-02-20T03:21:47.909Z,22.8
2018-02-20T03:22:47.843Z,22.8
2018-02-20T03:23:47.946Z,22.8
2018-02-20T03:24:47.874Z,22.8
2018-02-20T03:25:48.090Z,22.8
2018-02-20T03:26:47.919Z,22.9
2018-02-20T03:27:47.516Z,22.9
2018-02-20T03:28:47.705Z,23
2018-02-20T03:29:47.762Z,23.1
2018-02-20T03:30:47.346Z,23.1
2018-02-20T03:31:47.221Z,23.1
2018-02-20T03:32:47.223Z,23.1
2018-02-20T03:33:47.084Z,23.1
2018-02-20T03:34:47.234Z,23.1
2018-02-20T03:35:47.124Z,23.1
2018-02-20T03:36:47.332Z,23.1
2018-02-20T03:37:46.817Z,23.1
2018-02-20T03:38:46.810Z,23
2018-02-20T03:39:46.855Z,23
2018-02-20T03:40:46.768Z,23
2018-02-20T03:41:46.694Z,23.1
2018-02-20T03:42:46.550Z,23.1
2018-02-20T03:43:46.620Z,23
2018-02-20T03:44:46.379Z,22.9
2018-02-20T03:45:46.435Z,22.9
2018-02-20T03:46:46.280Z,22.9
2018-02-20T03:47:46.483Z,22.9
2018-02-20T03:48:46.049Z,22.9
2018-02-20T03:49:46.259Z,23
2018-02-20T03:50:46.662Z,23
2018-02-20T03:51:45.895Z,22.9
2018-02-20T03:52:45.891Z,22.9
2018-02-20T03:53:45.881Z,22.9
2018-02-20T03:54:45.728Z,22.9
2018-02-20T03:55:45.844Z,22.9
2018-02-20T03:56:45.845Z,22.9
2018-02-20T03:57:45.698Z,23
2018-02-20T03:58:45.378Z,23
2018-02-20T03:59:45.364Z,22.9
2018-02-20T04:00:45.386Z,22.9
2018-02-20T04:01:45.315Z,22.9
2018-02-20T04:02:45.150Z,22.8
2018-02-20T04:03:45.242Z,22.8
2018-02-20T04:04:45.016Z,22.9
2018-02-20T04:05:44.885Z,22.9
2018-02-20T04:06:45.456Z,22.9
2018-02-20T04:07:45.260Z,22.9
2018-02-20T04:08:44.794Z,22.9
2018-02-20T04:09:44.650Z,22.9
2018-02-20T04:10:44.542Z,22.9
2018-02-20T04:11:44.681Z,22.9
2018-02-20T04:12:45.101Z,22.9
2018-02-20T04:13:44.373Z,22.9
2018-02-20T04:14:44.373Z,22.9
2018-02-20T04:15:44.629Z,22.9
2018-02-20T04:16:44.483Z,22.9
2018-02-20T04:17:44.321Z,22.8
2018-02-20T04:18:44.381Z,22.8
2018-02-20T04:19:43.959Z,22.9
2018-02-20T04:20:44.009Z,22.9
2018-02-20T04:21:43.838Z,22.9
2018-02-20T04:22:43.819Z,22.9
2018-02-20T04:23:43.671Z,22.8
2018-02-20T04:24:43.605Z,22.8
2018-02-20T04:25:43.552Z,22.8
2018-02-20T04:26:43.600Z,22.9
2018-02-20T04:27:43.357Z,22.9
2018-02-20T04:28:43.339Z,22.9
2018-02-20T04:29:43.276Z,22.9
2018-02-20T04:30:43.314Z,22.9
2018-02-20T04:31:43.254Z,22.8
2018-02-20T04:32:43.035Z,22.8
2018-02-20T04:33:43.112Z,22.8
2018-02-20T04:34:43.034Z,22.8
2018-02-20T04:35:42.854Z,22.9
2018-02-20T04:36:42.906Z,22.9
2018-02-20T04:37:42.670Z,22.9
2018-02-20T04:38:42.780Z,22.9
2018-02-20T04:39:43.185Z,22.8
2018-02-20T04:40:42.472Z,22.8
2018-02-20T04:41:42.685Z,22.8
2018-02-20T04:42:42.683Z,22.8
2018-02-20T04:43:42.414Z,22.8
2018-02-20T04:44:42.939Z,22.8
2018-02-20T04:45:42.388Z,22.8
2018-02-20T04:46:42.447Z,22.8
2018-02-20T04:47:42.260Z,22.8
2018-02-20T04:48:42.131Z,22.8
2018-02-20T04:49:41.905Z,22.8
2018-02-20T04:50:42.232Z,22.8
2018-02-20T04:51:42.159Z,22.8
2018-02-20T04:52:41.694Z,22.9
2018-02-20T04:53:41.627Z,22.8
2018-02-20T04:54:41.803Z,22.8
2018-02-20T04:55:41.483Z,22.8
2018-02-20T04:56:41.530Z,22.8
2018-02-20T04:57:41.291Z,22.8
2018-02-20T04:58:41.396Z,22.8
2018-02-20T04:59:41.334Z,22.8
2018-02-20T05:00:41.247Z,22.8
2018-02-20T05:01:41.316Z,22.9
2018-02-20T05:02:41.106Z,22.8
2018-02-20T05:03:41.844Z,22.8
2018-02-20T05:04:41.109Z,22.8
2018-02-20T05:05:40.921Z,22.8
2018-02-20T05:06:40.758Z,22.7
2018-02-20T05:07:40.759Z,22.7
2018-02-20T05:08:40.712Z,22.6
2018-02-20T05:09:40.745Z,22.6
2018-02-20T05:10:40.413Z,22.6
2018-02-20T05:11:40.644Z,22.6
2018-02-20T05:12:40.310Z,22.7
2018-02-20T05:13:40.365Z,22.7
2018-02-20T05:14:40.287Z,22.8
2018-02-20T05:15:40.142Z,22.8
2018-02-20T05:16:39.982Z,22.8
2018-02-20T05:17:40.088Z,22.8
2018-02-20T05:18:40.010Z,22.7
2018-02-20T05:19:39.935Z,22.7
2018-02-20T05:20:39.757Z,22.6
2018-02-20T05:21:39.815Z,22.6
2018-02-20T05:22:39.738Z,22.6
2018-02-20T05:23:39.668Z,22.6
2018-02-20T05:24:39.491Z,22.6
2018-02-20T05:25:39.453Z,22.5
2018-02-20T05:26:39.442Z,22.5
2018-02-20T05:27:39.354Z,22.4
2018-02-20T05:28:39.322Z,22.4
2018-02-20T05:29:39.355Z,22.4
2018-02-20T05:30:39.197Z,22.4
2018-02-20T05:31:39.132Z,22.4
2018-02-20T05:32:38.931Z,22.4
2018-02-20T05:33:38.871Z,22.4
2018-02-20T05:34:38.794Z,22.5
2018-02-20T05:35:38.793Z,22.6
2018-02-20T05:36:39.194Z,22.7
2018-02-20T05:37:38.803Z,22.8
2018-02-20T05:38:38.643Z,22.8
2018-02-20T05:39:38.867Z,22.8
2018-02-20T05:40:38.477Z,22.7
2018-02-20T05:41:38.332Z,22.7
2018-02-20T05:42:38.305Z,22.6
2018-02-20T05:43:38.179Z,22.6
2018-02-20T05:44:38.336Z,22.7
2018-02-20T05:45:38.036Z,22.8
2018-02-20T05:46:38.053Z,22.8
2018-02-20T05:47:37.916Z,22.8
2018-02-20T05:48:37.776Z,22.8
2018-02-20T05:49:37.786Z,22.8
2018-02-20T05:50:38.143Z,22.7
2018-02-20T05:51:37.598Z,22.6
2018-02-20T05:52:37.781Z,22.6
2018-02-20T05:53:38.000Z,22.6
2018-02-20T05:54:37.521Z,22.6
2018-02-20T05:55:37.508Z,22.5
2018-02-20T05:56:37.326Z,22.5
2018-02-20T05:57:37.440Z,22.4
2018-02-20T05:58:37.137Z,22.4
2018-02-20T05:59:37.143Z,22.4
2018-02-20T06:00:37.113Z,22.4
2018-02-20T06:01:37.223Z,22.3
2018-02-20T06:02:36.979Z,22.3
2018-02-20T06:03:37.194Z,22.3
2018-02-20T06:04:36.852Z,22.3
2018-02-20T06:05:36.785Z,22.3
2018-02-20T06:06:36.883Z,22.4
2018-02-20T06:07:36.601Z,22.6
2018-02-20T06:08:36.728Z,22.7
2018-02-20T06:09:37.045Z,22.7
2018-02-20T06:10:36.438Z,22.7
2018-02-20T06:11:36.248Z,22.6
2018-02-20T06:12:36.399Z,22.6
2018-02-20T06:13:36.217Z,22.6
2018-02-20T06:14:36.152Z,22.5
2018-02-20T06:15:36.157Z,22.6
2018-02-20T06:16:35.999Z,22.6
2018-02-20T06:17:35.871Z,22.7
2018-02-20T06:18:35.877Z,22.8
2018-02-20T06:19:35.711Z,22.8
2018-02-20T06:20:35.678Z,22.7
2018-02-20T06:21:35.599Z,22.6
2018-02-20T06:22:36.073Z,22.6
2018-02-20T06:23:35.710Z,22.6
2018-02-20T06:24:35.346Z,22.6
2018-02-20T06:25:35.285Z,22.7
2018-02-20T06:26:35.210Z,22.8
2018-02-20T06:27:35.541Z,22.7
2018-02-20T06:28:35.299Z,22.7
2018-02-20T06:29:35.134Z,22.7
2018-02-20T06:30:35.039Z,22.6
2018-02-20T06:31:34.999Z,22.6
2018-02-20T06:32:35.068Z,22.7
2018-02-20T06:33:34.846Z,22.8
2018-02-20T06:34:34.671Z,22.8
2018-02-20T06:35:34.538Z,22.8
2018-02-20T06:36:34.777Z,22.7
2018-02-20T06:37:34.671Z,22.6
2018-02-20T06:38:34.378Z,22.6
2018-02-20T06:39:34.429Z,22.6
2018-02-20T06:40:34.323Z,22.7
2018-02-20T06:41:34.219Z,22.8
2018-02-20T06:42:34.339Z,22.8
2018-02-20T06:43:34.042Z,22.7
2018-02-20T06:44:33.985Z,22.7
2018-02-20T06:45:33.898Z,22.6
2018-02-20T06:46:33.911Z,22.6
2018-02-20T06:47:33.737Z,22.6
2018-02-20T06:48:33.695Z,22.6
2018-02-20T06:49:33.915Z,22.6
2018-02-20T06:50:33.499Z,22.6
2018-02-20T06:51:33.596Z,22.6
2018-02-20T06:52:33.452Z,22.6
2018-02-20T06:53:33.351Z,22.5
2018-02-20T06:54:33.386Z,22.6
2018-02-20T06:55:33.915Z,22.6
2018-02-20T06:56:33.276Z,22.6
2018-02-20T06:57:33.250Z,22.6
2018-02-20T06:58:33.421Z,22.7
2018-02-20T06:59:32.974Z,22.7
2018-02-20T07:00:32.976Z,22.8
2018-02-20T07:01:33.203Z,22.8
2018-02-20T07:02:32.855Z,22.8
2018-02-20T07:03:32.920Z,22.8
2018-02-20T07:04:32.585Z,22.8
2018-02-20T07:05:32.619Z,22.8
2018-02-20T07:06:32.566Z,22.8
2018-02-20T07:07:32.637Z,22.7
2018-02-20T07:08:32.689Z,22.7
2018-02-20T07:09:32.848Z,22.7
2018-02-20T07:10:32.451Z,22.6
2018-02-20T07:11:32.464Z,22.6
2018-02-20T07:12:32.036Z,22.6
2018-02-20T07:13:32.556Z,22.5
2018-02-20T07:14:32.017Z,22.5
2018-02-20T07:15:32.258Z,22.5
2018-02-20T07:16:31.702Z,22.5
2018-02-20T07:17:31.695Z,22.6
2018-02-20T07:18:31.673Z,22.6
2018-02-20T07:19:31.525Z,22.6
2018-02-20T07:20:31.471Z,22.6
2018-02-20T07:21:31.359Z,22.6
2018-02-20T07:22:31.628Z,22.6
2018-02-20T07:23:31.384Z,22.6
2018-02-20T07:24:31.149Z,22.6
2018-02-20T07:25:31.140Z,22.6
2018-02-20T07:26:31.295Z,22.6
2018-02-20T07:27:31.288Z,22.7
2018-02-20T07:28:31.051Z,22.8
2018-02-20T07:29:30.807Z,22.8
2018-02-20T07:30:31.020Z,22.7
2018-02-20T07:31:31.146Z,22.6
2018-02-20T07:32:30.660Z,22.6
2018-02-20T07:33:30.621Z,22.6
2018-02-20T07:34:30.511Z,22.7
2018-02-20T07:35:30.471Z,22.7
2018-02-20T07:36:30.495Z,22.8
2018-02-20T07:37:30.305Z,22.8
2018-02-20T07:38:30.598Z,22.9
2018-02-20T07:39:30.187Z,22.9
2018-02-20T07:40:30.111Z,22.8
2018-02-20T07:41:30.160Z,22.8
2018-02-20T07:42:29.954Z,22.7
2018-02-20T07:43:29.915Z,22.7
2018-02-20T07:44:30.126Z,22.7
2018-02-20T07:45:30.064Z,22.8
2018-02-20T07:46:29.716Z,22.8
2018-02-20T07:47:29.823Z,22.8
2018-02-20T07:48:29.826Z,22.9
2018-02-20T07:49:29.773Z,22.9
2018-02-20T07:50:29.408Z,23
2018-02-20T07:51:29.358Z,22.9
2018-02-20T07:52:29.483Z,22.9
2018-02-20T07:53:29.577Z,22.8
2018-02-20T07:54:29.418Z,22.8
2018-02-20T07:55:29.654Z,22.7
2018-02-20T07:56:29.097Z,22.7
2018-02-20T07:57:29.039Z,22.8
2018-02-20T07:58:28.959Z,22.8
2018-02-20T07:59:29.148Z,22.8
2018-02-20T08:00:28.846Z,22.9
2018-02-20T08:01:28.777Z,22.9
2018-02-20T08:02:28.871Z,22.9
2018-02-20T08:03:28.582Z,23
2018-02-20T08:04:28.476Z,23
2018-02-20T08:05:28.706Z,23
2018-02-20T08:06:28.305Z,23.1
2018-02-20T08:07:28.526Z,23
2018-02-20T08:08:28.119Z,23
2018-02-20T08:09:28.211Z,22.9
2018-02-20T08:10:28.073Z,22.9
2018-02-20T08:11:28.286Z,22.9
2018-02-20T08:12:27.888Z,22.8
2018-02-20T08:13:28.092Z,22.8
2018-02-20T08:14:27.891Z,22.7
2018-02-20T08:15:27.700Z,22.7
2018-02-20T08:16:27.820Z,22.6
2018-02-20T08:17:27.942Z,22.7
2018-02-20T08:18:27.517Z,22.7
2018-02-20T08:19:27.637Z,22.8
2018-02-20T08:20:27.457Z,22.8
2018-02-20T08:21:27.364Z,22.8
2018-02-20T08:22:27.505Z,22.8
2018-02-20T08:23:27.441Z,22.8
2018-02-20T08:24:27.346Z,22.8
2018-02-20T08:25:27.024Z,22.8
2018-02-20T08:26:27.313Z,22.8
2018-02-20T08:27:26.972Z,22.8
2018-02-20T08:28:26.786Z,22.8
2018-02-20T08:29:26.799Z,22.9
2018-02-20T08:30:26.640Z,22.9
2018-02-20T08:31:26.586Z,22.9
2018-02-20T08:32:26.503Z,22.9
2018-02-20T08:33:26.861Z,22.9
2018-02-20T08:34:26.307Z,22.8
2018-02-20T08:35:26.528Z,22.8
2018-02-20T08:36:26.346Z,22.8
2018-02-20T08:37:26.582Z,22.8
2018-02-20T08:38:26.194Z,22.9
2018-02-20T08:39:26.190Z,22.8
2018-02-20T08:40:25.915Z,22.8
2018-02-20T08:41:25.902Z,22.8
2018-02-20T08:42:25.928Z,22.8
2018-02-20T08:43:26.032Z,22.8
2018-02-20T08:44:25.710Z,22.8
2018-02-20T08:45:25.919Z,22.8
2018-02-20T08:46:25.591Z,22.9
2018-02-20T08:47:25.695Z,22.9
2018-02-20T08:48:25.519Z,22.9
2018-02-20T08:49:25.623Z,22.9
2018-02-20T08:50:25.380Z,23
2018-02-20T08:51:25.134Z,23
2018-02-20T08:52:25.140Z,22.9
2018-02-20T08:53:25.089Z,22.9
2018-02-20T08:54:25.118Z,22.9
2018-02-20T08:55:25.180Z,22.9
2018-02-20T08:56:25.233Z,22.8
2018-02-20T08:57:25.128Z,22.8
2018-02-20T08:58:24.925Z,22.8
2018-02-20T08:59:24.752Z,22.8
2018-02-20T09:00:24.725Z,22.8
2018-02-20T09:01:24.664Z,22.8
2018-02-20T09:02:24.485Z,22.8
2018-02-20T09:03:24.487Z,22.8
2018-02-20T09:04:24.344Z,22.9
2018-02-20T09:05:24.267Z,22.9
2018-02-20T09:06:24.267Z,22.9
2018-02-20T09:07:24.089Z,22.9
2018-02-20T09:08:24.027Z,22.9
2018-02-20T09:09:23.959Z,23
2018-02-20T09:10:24.129Z,23.1
2018-02-20T09:11:23.833Z,23.1
2018-02-20T09:12:23.746Z,23.1
2018-02-20T09:13:23.796Z,23.1
2018-02-20T09:14:23.911Z,23
2018-02-20T09:15:23.475Z,23
2018-02-20T09:16:23.567Z,22.9
2018-02-20T09:17:23.394Z,22.9
2018-02-20T09:18:23.292Z,22.9
2018-02-20T09:19:23.838Z,22.9
2018-02-20T09:20:23.186Z,22.9
2018-02-20T09:21:23.391Z,23
2018-02-20T09:22:23.048Z,23.1
2018-02-20T09:23:23.011Z,23.1
2018-02-20T09:24:23.045Z,23.1
2018-02-20T09:25:22.948Z,23.1
2018-02-20T09:26:22.974Z,23.1
2018-02-20T09:27:22.683Z,23.1
2018-02-20T09:28:22.592Z,23
2018-02-20T09:29:22.684Z,22.9
2018-02-20T09:30:22.608Z,22.9
2018-02-20T09:31:22.446Z,22.9
2018-02-20T09:32:22.357Z,22.9
2018-02-20T09:33:22.412Z,22.9
2018-02-20T09:34:22.260Z,22.8
2018-02-20T09:35:22.128Z,22.8
2018-02-20T09:36:22.041Z,22.8
2018-02-20T09:37:22.407Z,22.9
2018-02-20T09:38:21.943Z,22.9
2018-02-20T09:39:21.891Z,22.9
2018-02-20T09:40:22.465Z,23
2018-02-20T09:41:21.838Z,23
2018-02-20T09:42:22.020Z,23.1
2018-02-20T09:43:21.702Z,23.1
2018-02-20T09:44:21.542Z,23.1
2018-02-20T09:45:21.546Z,23.1
2018-02-20T09:46:21.503Z,23.1
2018-02-20T09:47:21.417Z,23
2018-02-20T09:48:21.351Z,22.9
2018-02-20T09:49:21.186Z,22.9
2018-02-20T09:50:21.213Z,22.9
2018-02-20T09:51:21.211Z,22.8
2018-02-20T09:52:21.357Z,22.8
2018-02-20T09:53:20.901Z,22.8
2018-02-20T09:54:20.886Z,22.8
2018-02-20T09:55:21.064Z,22.8
2018-02-20T09:56:20.687Z,22.9
2018-02-20T09:57:20.861Z,23
2018-02-20T09:58:20.614Z,23
2018-02-20T09:59:20.486Z,23
2018-02-20T10:00:20.420Z,22.9
2018-02-20T10:01:20.560Z,22.9
2018-02-20T10:02:20.512Z,22.9
2018-02-20T10:03:20.325Z,22.9
2018-02-20T10:04:20.370Z,22.9
2018-02-20T10:05:20.239Z,22.9
2018-02-20T10:06:20.291Z,22.8
2018-02-20T10:07:20.112Z,22.8
2018-02-20T10:08:19.858Z,22.8
2018-02-20T10:09:20.205Z,22.8
2018-02-20T10:10:19.832Z,22.9
2018-02-20T10:11:19.658Z,22.9
2018-02-20T10:12:19.584Z,23
2018-02-20T10:13:19.748Z,23
2018-02-20T10:14:19.434Z,23
2018-02-20T10:15:19.558Z,22.9
2018-02-20T10:16:19.704Z,22.9
2018-02-20T10:17:19.344Z,22.9
2018-02-20T10:18:19.180Z,22.9
2018-02-20T10:19:19.102Z,22.9
2018-02-20T10:20:19.083Z,22.8
2018-02-20T10:21:19.279Z,22.8
2018-02-20T10:22:18.916Z,22.8
2018-02-20T10:23:18.848Z,22.8
2018-02-20T10:24:18.859Z,22.8
2018-02-20T10:25:18.685Z,22.9
2018-02-20T10:26:18.743Z,22.9
2018-02-20T10:27:18.560Z,22.9
2018-02-20T10:28:18.497Z,22.9
2018-02-20T10:29:18.522Z,22.9
2018-02-20T10:30:18.359Z,22.8
2018-02-20T10:31:18.537Z,22.8
2018-02-20T10:32:18.298Z,22.9
2018-02-20T10:33:18.317Z,22.8
2018-02-20T10:34:18.353Z,22.8
2018-02-20T10:35:18.111Z,22.8
2018-02-20T10:36:18.460Z,22.8
2018-02-20T10:37:17.898Z,22.8
2018-02-20T10:38:18.239Z,22.8
2018-02-20T10:39:17.719Z,22.8
2018-02-20T10:40:17.876Z,22.9
2018-02-20T10:41:17.899Z,22.9
2018-02-20T10:42:17.468Z,22.9
2018-02-20T10:43:17.677Z,22.9
2018-02-20T10:44:17.322Z,22.9
2018-02-20T10:45:17.406Z,22.9
2018-02-20T10:46:17.359Z,22.9
2018-02-20T10:47:17.565Z,22.8
2018-02-20T10:48:17.405Z,22.8
2018-02-20T10:49:17.269Z,22.8
2018-02-20T10:50:17.068Z,22.8
2018-02-20T10:51:17.008Z,22.8
2018-02-20T10:52:16.829Z,22.8
2018-02-20T10:53:17.075Z,22.8
2018-02-20T10:54:16.719Z,22.9
2018-02-20T10:55:16.795Z,22.9
2018-02-20T10:56:16.854Z,22.9
2018-02-20T10:57:16.593Z,22.9
2018-02-20T10:58:16.510Z,22.9
2018-02-20T10:59:16.619Z,22.9
2018-02-20T11:00:16.277Z,22.9
2018-02-20T11:01:16.326Z,22.8
2018-02-20T11:02:16.136Z,22.9
2018-02-20T11:03:16.530Z,22.8
2018-02-20T11:04:15.957Z,22.8
2018-02-20T11:05:16.048Z,22.8
2018-02-20T11:06:15.976Z,22.8
2018-02-20T11:07:16.176Z,22.8
2018-02-20T11:08:15.718Z,22.8
2018-02-20T11:09:16.046Z,22.9
2018-02-20T11:10:15.642Z,22.9
2018-02-20T11:11:15.529Z,22.9
2018-02-20T11:12:15.557Z,23
2018-02-20T11:13:15.478Z,23
2018-02-20T11:14:15.243Z,23
2018-02-20T11:15:15.248Z,22.9
2018-02-20T11:16:15.480Z,22.9
2018-02-20T11:17:15.198Z,22.9
2018-02-20T11:18:15.040Z,22.9
2018-02-20T11:19:15.060Z,22.9
2018-02-20T11:20:14.978Z,22.8
2018-02-20T11:21:14.819Z,22.8
2018-02-20T11:22:14.960Z,22.8
2018-02-20T11:23:14.678Z,22.9
2018-02-20T11:24:14.830Z,22.9
2018-02-20T11:25:14.541Z,22.9
2018-02-20T11:26:14.526Z,22.9
2018-02-20T11:27:14.566Z,23
2018-02-20T11:28:14.341Z,22.9
2018-02-20T11:29:14.424Z,22.9
2018-02-20T11:30:14.407Z,22.9
2018-02-20T11:31:14.067Z,22.9
2018-02-20T11:32:14.170Z,22.9
2018-02-20T11:33:14.108Z,22.9
2018-02-20T11:34:14.001Z,22.8
2018-02-20T11:35:14.030Z,22.8
2018-02-20T11:36:13.825Z,22.8
2018-02-20T11:37:13.717Z,22.8
2018-02-20T11:38:13.767Z,22.8
2018-02-20T11:39:13.568Z,22.9
2018-02-20T11:40:13.724Z,22.9
2018-02-20T11:41:13.544Z,22.9
2018-02-20T11:42:13.799Z,22.9
2018-02-20T11:43:13.368Z,22.9
2018-02-20T11:44:13.340Z,22.8
2018-02-20T11:45:13.319Z,22.8
2018-02-20T11:46:13.190Z,22.8
2018-02-20T11:47:13.060Z,22.9
2018-02-20T11:48:13.180Z,22.9
2018-02-20T11:49:13.004Z,22.9
2018-02-20T11:50:12.918Z,23
2018-02-20T11:51:12.954Z,23
2018-02-20T11:52:13.016Z,23
2018-02-20T11:53:12.879Z,22.9
2018-02-20T11:54:44.921Z,22.9
2018-02-20T11:55:12.398Z,22.9
2018-02-20T11:56:12.580Z,22.9
2018-02-20T11:57:12.297Z,22.8
2018-02-20T11:58:12.432Z,22.8
2018-02-20T11:59:12.452Z,22.8
2018-02-20T12:00:12.322Z,22.8
2018-02-20T12:01:11.978Z,22.8
2018-02-20T12:02:11.909Z,22.8
2018-02-20T12:03:12.053Z,22.9
2018-02-20T12:04:11.692Z,22.9
2018-02-20T12:05:11.965Z,22.9
2018-02-20T12:06:11.875Z,23
2018-02-20T12:07:11.509Z,23
2018-02-20T12:08:11.585Z,22.9
2018-02-20T12:09:11.358Z,22.9
2018-02-20T12:10:11.275Z,22.9
2018-02-20T12:11:11.484Z,22.9
2018-02-20T12:12:11.238Z,22.9
2018-02-20T12:13:11.042Z,22.9
2018-02-20T12:14:11.300Z,23
2018-02-20T12:15:11.483Z,23.1
2018-02-20T12:16:10.910Z,23.1
2018-02-20T12:17:10.763Z,23.1
2018-02-20T12:18:10.770Z,23
2018-02-20T12:19:10.799Z,22.9
2018-02-20T12:20:10.497Z,22.9
2018-02-20T12:21:10.414Z,22.9
2018-02-20T12:22:10.448Z,22.9
2018-02-20T12:23:10.582Z,22.8
2018-02-20T12:24:10.181Z,22.8
2018-02-20T12:25:10.129Z,22.8
2018-02-20T12:26:10.029Z,22.8
2018-02-20T12:27:09.986Z,22.8
2018-02-20T12:28:10.074Z,22.9
2018-02-20T12:29:09.837Z,22.9
2018-02-20T12:30:09.691Z,22.8
2018-02-20T12:31:09.689Z,22.8
2018-02-20T12:32:09.945Z,22.8
2018-02-20T12:33:09.467Z,22.8
2018-02-20T12:34:09.391Z,22.8
2018-02-20T12:35:09.555Z,22.9
2018-02-20T12:36:09.276Z,22.9
2018-02-20T12:37:09.165Z,22.9
2018-02-20T12:38:09.185Z,22.8
2018-02-20T12:39:09.103Z,22.8
2018-02-20T12:40:09.321Z,22.8
2018-02-20T12:41:08.957Z,22.8
2018-02-20T12:42:08.822Z,22.8
2018-02-20T12:43:09.337Z,22.9
2018-02-20T12:44:08.727Z,22.9
2018-02-20T12:45:08.545Z,22.9
2018-02-20T12:46:08.541Z,22.9
2018-02-20T12:47:08.361Z,22.8
2018-02-20T12:48:08.257Z,22.8
2018-02-20T12:49:08.315Z,22.9
2018-02-20T12:50:08.254Z,22.9
2018-02-20T12:51:08.077Z,23
2018-02-20T12:52:07.972Z,23
2018-02-20T12:53:07.846Z,22.9
2018-02-20T12:54:07.930Z,22.9
2018-02-20T12:55:08.004Z,22.9
2018-02-20T12:56:07.664Z,22.9
2018-02-20T12:57:07.976Z,22.9
2018-02-20T12:58:07.445Z,22.8
2018-02-20T12:59:07.452Z,22.8
2018-02-20T13:00:07.470Z,22.8
2018-02-20T13:01:07.562Z,22.8
2018-02-20T13:02:07.413Z,22.8
2018-02-20T13:03:07.085Z,22.8
2018-02-20T13:04:07.170Z,22.9
2018-02-20T13:05:07.103Z,22.9
2018-02-20T13:06:06.876Z,22.9
2018-02-20T13:07:06.966Z,22.8
2018-02-20T13:08:06.947Z,22.8
2018-02-20T13:09:06.695Z,22.8
2018-02-20T13:10:07.134Z,22.8
2018-02-20T13:11:06.488Z,22.8
2018-02-20T13:12:06.644Z,22.8
2018-02-20T13:13:06.273Z,22.9
2018-02-20T13:14:06.540Z,22.9
2018-02-20T13:15:06.284Z,22.9
2018-02-20T13:16:06.106Z,22.9
2018-02-20T13:17:06.333Z,22.8
2018-02-20T13:18:05.924Z,22.8
2018-02-20T13:19:06.080Z,22.8
2018-02-20T13:20:05.772Z,22.8
2018-02-20T13:21:05.714Z,22.8
2018-02-20T13:22:05.625Z,22.8